West Bend, Wisconsin
Current Conditions -  °F | °C
As of 7:55 PM on Monday 20 Oct 2014 (Local Time) from KETB Reporting Station
Overcast Overcast  
Wind Chill: 50°   Ceiling: 5000
Heat Index: 50°   Visibility: 10mi
Dew Point: 41°   Wind: 5mph
Humidity: 71%   Direction: 330°NNW
Pressure: 29.99"   Gusts: NA
Location:  43.41°N, 88.18°W
Report Text: KETB 210055Z AUTO 33004KT 10SM SCT027 SCT035 OVC050 10/05 A2999 RMK AO2
Loading
Personal Weather Stations






























Interactive Weather Map
Tropical Storm Tracking
New forecast layout! Learn more

10-Day Weather Forecast

Advertisements
Track Severe Weather on mobile